Погода Шпунтына 2 недели

Смоленская область, Россия

23 июля-05 августа
  • 23июля
    Сегодня
    +12°
    +24°
    Ясно и безоблачно
    ВремяПогодаТемператураВлажностьДавлениеВетер, м/сВероятность осадков
    00:00Ясно и безоблачно+16°C93 %738 мм3.0 м/с4 %
    03:00Ясно и безоблачно+15°C97 %739 мм2.3 м/с2 %
    06:00Ясно и безоблачно+15°C94 %739 мм3.5 м/с2 %
    09:00Ясно и безоблачно+19°C72 %740 мм3.5 м/с2 %
    12:00Ясно и безоблачно+22°C49 %740 мм3.7 м/с15 %
    15:00Ясно и безоблачно+23°C41 %739 мм3.0 м/с19 %
    18:00Ясно и безоблачно+23°C39 %739 мм3.5 м/с8 %
    21:00Ясно и безоблачно+19°C55 %739 мм3.5 м/с2 %
  • 24июля
    Среда
    +11°
    +24°
    Облачно с прояснениями
    ВремяПогодаТемператураВлажностьДавлениеВетер, м/сВероятность осадков
    00:00Небольшая облачность+15°C70 %740 мм2.0 м/с2 %
    03:00Ясно и безоблачно+13°C79 %740 мм2.4 м/с2 %
    06:00Ясно и безоблачно+13°C80 %740 мм2.7 м/с2 %
    09:00Ясно и безоблачно+20°C53 %740 мм2.6 м/с2 %
    12:00Небольшая облачность+23°C38 %740 мм3.5 м/с2 %
    15:00Облачно с прояснениями+23°C37 %739 мм3.2 м/с2 %
    18:00Практически безоблачно+24°C37 %739 мм3.0 м/с2 %
    21:00Ясно и безоблачно+18°C56 %739 мм1.9 м/с2 %
  • 25июля
    Четверг
    +13°
    +26°
    Ясно и безоблачно
    ВремяПогодаТемператураВлажностьДавлениеВетер, м/сВероятность осадков
    00:00Ясно и безоблачно+14°C67 %738 мм2.0 м/с2 %
    03:00Ясно и безоблачно+12°C78 %738 мм2.3 м/с2 %
    06:00Ясно и безоблачно+14°C74 %738 мм0.5 м/с2 %
    09:00Ясно и безоблачно+22°C48 %738 мм1.4 м/с2 %
    12:00Пасмурно, сплошная облачность+25°C38 %738 мм1.2 м/с9 %
    15:00Ясно и безоблачно+25°C38 %738 мм1.9 м/с21 %
    18:00Практически безоблачно+25°C42 %737 мм2.4 м/с28 %
    21:00Ясно и безоблачно+20°C60 %738 мм2.0 м/с9 %
  • 26июля
    Пятница
    +12°
    +25°
    Небольшая облачность
    ВремяПогодаТемператураВлажностьДавлениеВетер, м/сВероятность осадков
    00:00Ясно и безоблачно+16°C78 %738 мм1.9 м/с2 %
    03:00Ясно и безоблачно+15°C91 %738 мм1.7 м/с2 %
    06:00Ясно и безоблачно+15°C90 %738 мм2.1 м/с2 %
    09:00Ясно и безоблачно+21°C66 %739 мм2.0 м/с2 %
    12:00Практически безоблачно+23°C55 %740 мм2.5 м/с24 %
    15:00Небольшая облачность+23°C48 %740 мм2.9 м/с23 %
    18:00Практически безоблачно+24°C46 %741 мм2.2 м/с33 %
    21:00Практически безоблачно+19°C60 %741 мм1.2 м/с12 %
  • 27июля
    Суббота
    +12°
    +26°
    Практически безоблачно
    ВремяПогодаТемператураВлажностьДавлениеВетер, м/сВероятность осадков
    00:00Ясно и безоблачно+17°C67 %742 мм1.4 м/с4 %
    03:00Ясно и безоблачно+14°C79 %742 мм1.5 м/с4 %
    06:00Ясно и безоблачно+14°C78 %743 мм1.8 м/с3 %
    09:00Ясно и безоблачно+22°C55 %744 мм1.6 м/с10 %
    12:00Практически безоблачно+24°C46 %745 мм1.9 м/с21 %
    15:00Практически безоблачно+25°C43 %744 мм2.2 м/с20 %
    18:00Практически безоблачно+26°C44 %744 мм2.2 м/с35 %
    21:00Ясно и безоблачно+20°C66 %745 мм1.5 м/с16 %
Мы используем cookies
Соглашаюсь